Time;durP1;ratioP1;P1;durP2;ratioP2;P2;SDS_P1;SDS_P2;PMS_P1;PMS_P2;Temp;Humidity;BMP_temperature;BMP_pressure;BME280_temperature;BME280_humidity;BME280_pressure;Samples;Min_cycle;Max_cycle;Signal;HPM_P1;HPM_P2
2021/07/20 00:01:32;;;;;;;16.13;12.27;;;18.60;99.90;;;;;;4902349;29;20193;-70
2021/07/20 00:03:58;;;;;;;12.70;11.40;;;18.50;99.90;;;;;;4901880;29;20259;-76
2021/07/20 00:06:24;;;;;;;15.03;12.03;;;18.50;99.90;;;;;;4918592;29;20178;-70
2021/07/20 00:08:50;;;;;;;16.63;12.30;;;18.50;99.90;;;;;;4918953;29;20252;-69
2021/07/20 00:11:15;;;;;;;16.40;11.90;;;18.50;99.90;;;;;;4918387;29;20186;-70
2021/07/20 00:13:41;;;;;;;14.87;11.87;;;18.40;99.90;;;;;;4918960;29;20218;-70
2021/07/20 00:16:07;;;;;;;18.77;12.63;;;18.40;99.90;;;;;;4918237;29;20179;-70
2021/07/20 00:18:35;;;;;;;12.43;11.20;;;18.40;99.90;;;;;;4918364;29;20178;-70
2021/07/20 00:21:06;;;;;;;15.20;12.70;;;18.40;99.90;;;;;;4918088;29;20175;-71
2021/07/20 00:23:32;;;;;;;14.13;12.63;;;18.30;99.90;;;;;;4918854;29;20454;-70
2021/07/20 00:25:58;;;;;;;12.60;11.30;;;18.20;99.90;;;;;;4918516;29;20896;-76
2021/07/20 00:28:24;;;;;;;16.50;12.27;;;18.10;99.90;;;;;;4918191;29;20450;-70
2021/07/20 00:30:51;;;;;;;15.17;13.37;;;18.10;99.90;;;;;;4901633;29;20273;-69
2021/07/20 00:33:17;;;;;;;13.97;12.47;;;18.10;99.90;;;;;;4917993;29;20414;-70
2021/07/20 00:35:44;;;;;;;14.33;12.53;;;18.10;99.90;;;;;;4918385;29;20415;-69
2021/07/20 00:38:11;;;;;;;13.90;12.50;;;18.10;99.90;;;;;;4917725;29;20422;-69
2021/07/20 00:40:37;;;;;;;14.53;13.03;;;18.10;99.90;;;;;;4918309;29;20485;-69
2021/07/20 00:43:04;;;;;;;13.37;11.60;;;18.10;99.90;;;;;;4917860;29;20414;-70
2021/07/20 00:45:31;;;;;;;13.50;11.50;;;18.10;99.90;;;;;;4918429;29;20966;-70
2021/07/20 00:47:57;;;;;;;13.47;12.07;;;18.10;99.90;;;;;;4918373;29;20517;-70
2021/07/20 00:50:33;;;;;;;16.63;12.83;;;18.10;99.90;;;;;;4918299;29;20424;-70
2021/07/20 00:52:59;;;;;;;13.10;11.50;;;18.10;99.90;;;;;;4917273;29;20405;-76
2021/07/20 00:55:25;;;;;;;16.97;13.20;;;18.00;99.90;;;;;;4917554;29;20414;-71
2021/07/20 00:57:54;;;;;;;13.40;12.10;;;18.00;99.90;;;;;;4924813;29;20796;-70
2021/07/20 01:00:22;;;;;;;16.03;12.40;;;18.00;99.90;;;;;;4921349;29;20431;-70
2021/07/20 01:02:48;;;;;;;14.57;12.70;;;18.00;99.90;;;;;;4918170;29;20844;-70
2021/07/20 01:05:22;;;;;;;14.10;12.53;;;18.00;99.90;;;;;;4900150;29;20462;-70
2021/07/20 01:07:48;;;;;;;13.57;11.70;;;18.00;99.90;;;;;;4917525;29;20462;-70
2021/07/20 01:10:15;;;;;;;15.10;12.87;;;18.00;99.90;;;;;;4916986;29;20752;-70
2021/07/20 01:12:45;;;;;;;14.07;12.63;;;18.00;99.90;;;;;;4918125;29;20415;-69
2021/07/20 01:15:14;;;;;;;15.73;13.80;;;18.00;99.90;;;;;;4917056;29;20415;-69
2021/07/20 01:17:41;;;;;;;14.07;12.67;;;18.00;99.90;;;;;;4917869;29;20930;-69
2021/07/20 01:20:10;;;;;;;14.57;13.00;;;18.00;99.90;;;;;;4916741;29;20429;-70
2021/07/20 01:22:39;;;;;;;18.03;12.87;;;17.90;99.90;;;;;;4917539;29;20429;-69
2021/07/20 01:25:11;;;;;;;15.53;12.93;;;17.90;99.90;;;;;;4916961;29;20846;-70
2021/07/20 01:27:47;;;;;;;20.23;13.43;;;17.90;99.90;;;;;;4917724;29;20514;-69
2021/07/20 01:30:14;;;;;;;16.87;13.23;;;17.90;99.90;;;;;;4917003;29;20867;-70
2021/07/20 01:32:41;;;;;;;16.73;12.83;;;17.90;99.90;;;;;;4917430;29;20474;-69
2021/07/20 01:35:08;;;;;;;13.20;11.90;;;17.80;99.90;;;;;;4916835;29;20449;-70
2021/07/20 01:37:36;;;;;;;14.33;12.83;;;17.80;99.90;;;;;;4900745;29;20845;-69
2021/07/20 01:40:04;;;;;;;15.83;12.47;;;17.80;99.90;;;;;;4900392;29;20450;-75
2021/07/20 01:42:31;;;;;;;13.33;11.13;;;17.80;99.90;;;;;;4900027;29;20414;-69
2021/07/20 01:44:58;;;;;;;13.53;11.50;;;17.80;99.90;;;;;;4917398;29;20830;-69
2021/07/20 01:47:27;;;;;;;14.43;11.70;;;17.80;99.90;;;;;;4916378;29;20540;-70
2021/07/20 01:49:56;;;;;;;14.00;12.60;;;17.90;99.90;;;;;;4916397;29;20457;-69
2021/07/20 01:52:23;;;;;;;13.70;12.40;;;17.80;99.90;;;;;;4916747;29;20417;-69
2021/07/20 01:54:50;;;;;;;13.33;11.97;;;17.80;99.90;;;;;;4917201;29;20422;-69
2021/07/20 01:57:17;;;;;;;14.10;11.60;;;17.80;99.90;;;;;;4916350;29;20430;-69
2021/07/20 01:59:43;;;;;;;13.70;12.33;;;17.80;99.90;;;;;;4916731;29;20422;-69
2021/07/20 02:02:37;;;;;;;13.43;11.60;;;17.80;99.90;;;;;;4916112;29;20426;-69
2021/07/20 02:10:36;;;;;;;13.50;12.10;;;17.80;99.90;;;;;;4917082;29;20450;-69
2021/07/20 02:13:04;;;;;;;15.40;13.80;;;17.80;99.90;;;;;;4916839;29;20749;-69
2021/07/20 02:15:30;;;;;;;13.77;12.07;;;17.90;99.90;;;;;;4916691;29;20457;-69
2021/07/20 02:17:58;;;;;;;15.00;13.50;;;17.90;99.90;;;;;;4916778;29;20497;-69
2021/07/20 02:20:27;;;;;;;13.70;12.27;;;17.90;99.90;;;;;;4898874;29;20492;-69
2021/07/20 02:22:54;;;;;;;14.23;11.30;;;17.80;99.90;;;;;;4916672;29;20418;-70
2021/07/20 02:25:24;;;;;;;15.20;13.53;;;17.80;99.90;;;;;;4915859;29;20822;-70
2021/07/20 02:27:50;;;;;;;13.30;12.00;;;17.80;99.90;;;;;;4916335;29;20885;-70
2021/07/20 02:30:18;;;;;;;14.20;12.70;;;17.80;99.90;;;;;;4915781;29;20509;-70
2021/07/20 02:32:45;;;;;;;14.90;12.80;;;17.80;99.90;;;;;;4916715;29;20474;-69
2021/07/20 02:35:17;;;;;;;12.90;11.70;;;17.90;99.90;;;;;;4915354;29;20473;-71
2021/07/20 02:37:44;;;;;;;14.97;13.37;;;17.90;99.90;;;;;;4916385;29;20415;-70
2021/07/20 02:40:12;;;;;;;15.87;12.30;;;17.80;99.90;;;;;;4915403;29;20926;-70
2021/07/20 02:42:39;;;;;;;14.70;12.60;;;17.80;99.90;;;;;;4898977;29;20434;-69
2021/07/20 02:45:07;;;;;;;12.73;11.50;;;17.80;99.90;;;;;;4899424;29;20521;-74
2021/07/20 02:47:34;;;;;;;13.83;12.43;;;17.80;99.90;;;;;;4915420;29;20465;-70
2021/07/20 02:50:01;;;;;;;14.17;12.13;;;17.80;99.90;;;;;;4915283;29;20425;-69
2021/07/20 02:52:30;;;;;;;14.57;12.07;;;17.70;99.90;;;;;;4915211;29;21162;-68
2021/07/20 02:54:58;;;;;;;19.27;12.90;;;17.70;99.90;;;;;;4915854;29;20422;-68
2021/07/20 02:57:24;;;;;;;13.40;11.93;;;17.70;99.90;;;;;;4900888;29;20442;-68
2021/07/20 02:59:52;;;;;;;14.87;11.80;;;17.70;99.90;;;;;;4935140;29;20457;-68
2021/07/20 03:02:19;;;;;;;14.03;12.57;;;17.70;99.90;;;;;;4927682;29;20481;-68
2021/07/20 03:04:45;;;;;;;12.70;11.40;;;17.70;99.90;;;;;;4916154;29;20765;-68
2021/07/20 03:07:15;;;;;;;13.03;11.73;;;17.70;99.90;;;;;;4915182;29;20922;-69
2021/07/20 03:09:44;;;;;;;14.17;12.70;;;17.70;99.90;;;;;;4915922;29;20427;-68
2021/07/20 03:12:14;;;;;;;12.80;11.60;;;17.70;99.90;;;;;;4915484;29;20415;-75
2021/07/20 03:14:40;;;;;;;12.93;11.80;;;17.70;99.90;;;;;;4915558;29;20833;-69
2021/07/20 03:17:09;;;;;;;14.07;12.67;;;17.70;99.90;;;;;;4921181;29;20429;-73
2021/07/20 03:19:36;;;;;;;13.37;12.03;;;17.60;99.90;;;;;;4920706;29;20509;-69
2021/07/20 03:22:06;;;;;;;15.20;12.43;;;17.60;99.90;;;;;;4920681;29;20474;-69
2021/07/20 03:24:37;;;;;;;13.30;12.00;;;17.60;99.90;;;;;;4916567;29;20426;-69
2021/07/20 03:27:06;;;;;;;12.77;11.47;;;17.60;99.90;;;;;;4920524;29;20513;-69
2021/07/20 03:29:40;;;;;;;13.20;11.90;;;17.60;99.90;;;;;;4920103;29;20430;-70
2021/07/20 03:32:08;;;;;;;13.53;12.23;;;17.50;99.90;;;;;;4921598;29;20909;-68
2021/07/20 03:34:35;;;;;;;14.00;12.70;;;17.50;99.90;;;;;;4921608;29;20497;-69
2021/07/20 03:37:01;;;;;;;14.13;12.83;;;17.50;99.90;;;;;;4922294;29;20526;-69
2021/07/20 03:39:27;;;;;;;13.07;11.87;;;17.50;99.90;;;;;;4921299;29;20430;-69
2021/07/20 03:41:52;;;;;;;12.67;11.50;;;17.50;99.90;;;;;;4921650;29;20434;-69
2021/07/20 03:44:19;;;;;;;13.27;11.97;;;17.40;99.90;;;;;;4920513;29;20522;-69
2021/07/20 03:46:45;;;;;;;15.13;13.73;;;17.40;99.90;;;;;;4904229;29;20269;-69
2021/07/20 03:49:13;;;;;;;13.93;12.03;;;17.40;99.90;;;;;;4920370;29;20410;-69
2021/07/20 03:51:41;;;;;;;14.10;12.60;;;17.30;99.90;;;;;;4921738;29;20434;-69
2021/07/20 03:54:10;;;;;;;15.63;13.23;;;17.30;99.90;;;;;;4905066;29;20458;-68
2021/07/20 03:56:40;;;;;;;13.67;12.27;;;17.30;99.90;;;;;;4922006;29;20926;-68
2021/07/20 03:59:08;;;;;;;13.07;11.63;;;17.40;99.90;;;;;;4921932;29;20410;-69
2021/07/20 04:01:37;;;;;;;15.10;13.70;;;17.30;99.90;;;;;;4921460;29;20444;-69
2021/07/20 04:04:06;;;;;;;14.00;12.50;;;17.30;99.90;;;;;;4921889;29;20426;-69
2021/07/20 04:06:34;;;;;;;14.87;12.17;;;17.30;99.90;;;;;;4920896;29;20518;-69
2021/07/20 04:09:01;;;;;;;14.60;13.20;;;17.30;99.90;;;;;;4921884;29;20406;-69
2021/07/20 04:11:27;;;;;;;12.27;10.73;;;17.30;99.90;;;;;;4921916;29;20477;-69
2021/07/20 04:13:54;;;;;;;13.73;12.30;;;17.40;99.90;;;;;;4921930;29;20426;-68
2021/07/20 04:16:24;;;;;;;19.30;13.63;;;17.40;99.90;;;;;;4920669;29;20437;-68
2021/07/20 04:18:51;;;;;;;13.30;11.83;;;17.40;99.90;;;;;;4921814;29;20391;-68
2021/07/20 04:21:17;;;;;;;14.07;12.40;;;17.40;99.90;;;;;;4921005;29;20415;-68
2021/07/20 04:23:44;;;;;;;18.27;13.57;;;17.40;99.90;;;;;;4921694;29;20504;-68
2021/07/20 04:26:12;;;;;;;14.40;12.33;;;17.40;99.90;;;;;;4921226;29;20506;-75
2021/07/20 04:28:39;;;;;;;13.00;11.73;;;17.40;99.90;;;;;;4918619;29;20473;-68
2021/07/20 04:31:06;;;;;;;13.10;11.80;;;17.50;99.90;;;;;;4918237;29;20462;-68
2021/07/20 04:33:34;;;;;;;15.13;13.53;;;17.50;99.90;;;;;;4917952;29;20567;-68
2021/07/20 04:36:03;;;;;;;15.13;12.80;;;17.50;99.90;;;;;;4918208;29;20419;-68
2021/07/20 04:38:36;;;;;;;17.40;13.90;;;17.50;99.90;;;;;;4917805;29;20500;-68
2021/07/20 04:41:02;;;;;;;15.43;13.80;;;17.60;99.90;;;;;;4918289;29;20426;-68
2021/07/20 04:43:30;;;;;;;15.37;13.57;;;17.60;99.90;;;;;;4917309;29;20835;-68
2021/07/20 04:45:57;;;;;;;14.07;12.70;;;17.60;99.90;;;;;;4918037;29;20998;-68
2021/07/20 04:48:23;;;;;;;17.43;15.63;;;17.60;99.90;;;;;;4917603;29;20493;-68
2021/07/20 04:50:52;;;;;;;16.83;14.93;;;17.60;99.90;;;;;;4917986;29;20434;-68
2021/07/20 04:53:18;;;;;;;15.17;13.60;;;17.60;99.90;;;;;;4917443;29;20426;-68
2021/07/20 04:55:49;;;;;;;14.67;13.17;;;17.50;99.90;;;;;;4901379;29;20417;-69
2021/07/20 04:58:15;;;;;;;17.67;13.80;;;17.50;99.90;;;;;;4917764;29;20461;-75
2021/07/20 05:00:48;;;;;;;16.90;14.07;;;17.60;99.90;;;;;;4918497;29;20762;-68
2021/07/20 05:03:14;;;;;;;15.03;13.43;;;17.60;99.90;;;;;;4917822;29;20945;-74
2021/07/20 05:05:41;;;;;;;15.27;13.70;;;17.60;99.90;;;;;;4917988;29;20521;-68
2021/07/20 05:08:09;;;;;;;15.70;14.10;;;17.70;99.90;;;;;;4918062;29;20477;-68
2021/07/20 05:10:38;;;;;;;15.17;13.57;;;17.80;99.90;;;;;;4917031;29;20990;-68
2021/07/20 05:13:08;;;;;;;17.77;16.07;;;17.80;99.90;;;;;;4917637;29;20411;-68
2021/07/20 05:15:34;;;;;;;14.40;12.87;;;17.80;99.90;;;;;;4916904;29;20426;-68
2021/07/20 05:18:01;;;;;;;15.73;14.10;;;17.90;99.90;;;;;;4917867;29;20433;-68
2021/07/20 05:20:28;;;;;;;16.07;14.43;;;17.90;99.90;;;;;;4916831;29;20407;-68
2021/07/20 05:22:56;;;;;;;17.10;13.30;;;17.80;99.90;;;;;;4917907;29;20561;-68
2021/07/20 05:25:22;;;;;;;18.20;15.57;;;17.80;99.90;;;;;;4917022;29;20814;-68
2021/07/20 05:27:53;;;;;;;17.03;13.40;;;17.70;99.90;;;;;;4917663;29;20556;-68
2021/07/20 05:30:19;;;;;;;20.10;15.60;;;17.70;99.90;;;;;;4916639;29;20509;-69
2021/07/20 05:32:47;;;;;;;19.07;15.50;;;17.60;99.90;;;;;;4916838;29;20477;-68
2021/07/20 05:35:15;;;;;;;22.50;13.93;;;17.60;99.90;;;;;;4917667;29;20434;-68
2021/07/20 05:37:42;;;;;;;19.33;14.70;;;17.50;99.90;;;;;;4917404;29;20466;-68
2021/07/20 05:40:10;;;;;;;18.90;15.70;;;17.50;99.90;;;;;;4917555;29;20837;-68
2021/07/20 05:42:36;;;;;;;16.03;14.10;;;17.60;99.90;;;;;;4917321;29;20817;-68
2021/07/20 05:45:05;;;;;;;19.53;15.00;;;17.60;99.90;;;;;;4917741;29;20419;-68
2021/07/20 05:47:35;;;;;;;21.20;19.10;;;17.60;99.90;;;;;;4916801;29;20466;-68
2021/07/20 05:50:01;;;;;;;18.00;14.73;;;17.70;99.90;;;;;;4917757;29;20395;-68
2021/07/20 05:52:28;;;;;;;17.90;14.90;;;17.70;99.90;;;;;;4916831;29;20986;-68
2021/07/20 05:54:54;;;;;;;20.30;17.23;;;17.80;99.90;;;;;;4917639;29;20735;-68
2021/07/20 05:57:25;;;;;;;21.70;15.70;;;17.80;99.90;;;;;;4917010;29;20411;-68
2021/07/20 05:59:52;;;;;;;19.67;16.13;;;17.70;99.90;;;;;;4917546;29;20402;-69
2021/07/20 06:02:19;;;;;;;23.20;16.97;;;17.70;99.90;;;;;;4916451;29;20433;-69
2021/07/20 06:04:45;;;;;;;16.90;15.20;;;17.80;99.90;;;;;;4917399;29;20422;-69
2021/07/20 06:07:12;;;;;;;18.90;15.80;;;17.70;99.90;;;;;;4916988;29;20521;-68
2021/07/20 06:09:43;;;;;;;19.90;15.87;;;17.80;99.90;;;;;;4916792;29;20422;-69
2021/07/20 06:12:10;;;;;;;20.60;16.97;;;17.90;99.90;;;;;;4917086;29;20415;-69
2021/07/20 06:14:37;;;;;;;19.23;16.30;;;18.00;99.90;;;;;;4916621;29;20688;-69
2021/07/20 06:17:03;;;;;;;21.00;18.80;;;18.00;99.90;;;;;;4917508;29;20506;-69
2021/07/20 06:19:31;;;;;;;18.40;15.37;;;18.10;99.90;;;;;;4916544;29;20422;-69
2021/07/20 06:21:58;;;;;;;22.60;15.93;;;18.20;99.90;;;;;;4916485;29;20418;-69
2021/07/20 06:24:25;;;;;;;21.80;16.47;;;18.20;99.90;;;;;;4916230;29;20466;-69
2021/07/20 06:26:51;;;;;;;16.50;14.80;;;18.20;99.90;;;;;;4916631;29;20501;-69
2021/07/20 06:29:18;;;;;;;21.80;17.17;;;18.30;99.90;;;;;;4916532;29;20749;-75
2021/07/20 06:31:45;;;;;;;21.67;17.70;;;18.40;99.90;;;;;;4916706;29;20462;-69
2021/07/20 06:34:13;;;;;;;26.53;19.17;;;18.40;99.90;;;;;;4916632;29;20946;-69
2021/07/20 06:36:42;;;;;;;20.80;18.13;;;18.40;99.90;;;;;;4915476;29;20434;-69
2021/07/20 06:39:09;;;;;;;24.60;17.17;;;18.50;99.90;;;;;;4914104;29;20428;-70
2021/07/20 06:41:36;;;;;;;20.97;18.73;;;18.50;99.90;;;;;;4914768;29;20827;-71
2021/07/20 06:44:04;;;;;;;17.87;15.27;;;18.70;99.90;;;;;;4915996;29;20795;-70
2021/07/20 06:46:30;;;;;;;18.63;16.63;;;19.10;99.90;;;;;;4915343;29;20834;-70
2021/07/20 06:48:57;;;;;;;20.73;18.53;;;19.20;99.90;;;;;;4916511;29;20454;-71
2021/07/20 06:51:24;;;;;;;22.13;17.03;;;18.80;99.90;;;;;;4914359;29;20441;-71
2021/07/20 06:53:52;;;;;;;27.43;18.13;;;18.60;99.90;;;;;;4916080;29;20481;-71
2021/07/20 06:56:48;;;;;;;24.53;17.00;;;18.60;99.90;;;;;;4916255;29;20427;-71
2021/07/20 06:59:15;;;;;;;18.63;14.93;;;18.60;99.90;;;;;;4890639;29;20855;-71
2021/07/20 07:01:42;;;;;;;16.60;14.80;;;18.60;99.90;;;;;;4915318;29;20418;-71
2021/07/20 07:04:29;;;;;;;21.40;16.10;;;18.60;99.90;;;;;;4916060;29;20413;-71
2021/07/20 07:06:58;;;;;;;18.60;16.00;;;18.80;99.90;;;;;;4916142;29;20423;-71
2021/07/20 07:09:26;;;;;;;16.40;14.60;;;19.00;99.90;;;;;;4914869;29;20437;-71
2021/07/20 07:11:52;;;;;;;19.63;15.73;;;19.10;99.90;;;;;;4915392;29;20423;-71
2021/07/20 07:14:19;;;;;;;18.67;15.97;;;19.30;99.90;;;;;;4916275;29;20506;-71
2021/07/20 07:16:46;;;;;;;18.60;16.60;;;19.30;99.90;;;;;;4923562;29;20430;-71
2021/07/20 07:19:19;;;;;;;16.10;14.50;;;19.50;99.90;;;;;;4914809;29;20461;-71
2021/07/20 07:21:48;;;;;;;18.47;16.40;;;19.60;99.90;;;;;;4914569;29;20414;-72
2021/07/20 07:24:17;;;;;;;16.33;14.40;;;19.60;99.90;;;;;;4918066;29;20481;-71
2021/07/20 07:26:44;;;;;;;16.30;14.60;;;19.70;99.90;;;;;;4915083;29;20417;-69
2021/07/20 07:29:14;;;;;;;17.60;15.70;;;19.70;99.90;;;;;;4915550;29;20818;-70
2021/07/20 07:31:44;;;;;;;17.03;15.33;;;19.20;99.90;;;;;;4915507;29;21091;-71
2021/07/20 07:34:10;;;;;;;16.97;15.27;;;19.10;99.90;;;;;;4916259;29;20411;-72
2021/07/20 07:36:37;;;;;;;14.33;12.80;;;19.20;99.90;;;;;;4915534;29;20415;-71
2021/07/20 07:39:05;;;;;;;18.23;16.33;;;19.30;99.90;;;;;;4916039;29;20422;-71
2021/07/20 07:41:34;;;;;;;16.70;14.47;;;19.20;99.90;;;;;;4898582;29;20409;-72
2021/07/20 07:44:02;;;;;;;16.40;14.90;;;19.20;99.90;;;;;;4915950;29;20809;-71
2021/07/20 07:46:31;;;;;;;14.33;12.87;;;19.30;99.90;;;;;;4915674;29;20399;-71
2021/07/20 07:48:58;;;;;;;16.70;15.00;;;19.50;99.90;;;;;;4915861;29;20457;-72
2021/07/20 07:51:24;;;;;;;16.73;15.13;;;19.60;99.90;;;;;;4915236;29;20458;-75
2021/07/20 07:53:51;;;;;;;17.60;15.13;;;19.70;99.90;;;;;;4915858;29;20430;-72
2021/07/20 07:56:17;;;;;;;17.40;15.70;;;19.80;99.90;;;;;;4915487;29;20470;-72
2021/07/20 07:58:44;;;;;;;17.00;15.13;;;19.60;99.90;;;;;;4915169;29;20438;-72
2021/07/20 08:01:11;;;;;;;18.57;15.00;;;19.70;99.90;;;;;;4899597;29;20556;-71
2021/07/20 08:03:42;;;;;;;19.80;17.97;;;19.70;99.90;;;;;;4918987;29;20433;-72
2021/07/20 08:06:09;;;;;;;13.87;12.43;;;19.80;99.90;;;;;;4919695;29;20883;-71
2021/07/20 08:08:37;;;;;;;19.70;16.07;;;20.00;99.90;;;;;;4921243;29;20462;-72
2021/07/20 08:11:10;;;;;;;14.20;12.80;;;20.00;99.60;;;;;;4918824;29;20758;-73
2021/07/20 08:13:38;;;;;;;15.07;13.60;;;20.00;99.10;;;;;;4910595;29;20485;-71
2021/07/20 08:16:06;;;;;;;17.87;11.77;;;19.80;98.90;;;;;;4938344;29;20420;-72
2021/07/20 08:18:32;;;;;;;13.57;12.17;;;19.90;99.90;;;;;;4931249;29;20461;-72
2021/07/20 08:21:04;;;;;;;16.70;14.40;;;20.00;99.90;;;;;;4919048;29;20449;-72
2021/07/20 08:23:31;;;;;;;14.63;13.20;;;20.00;99.90;;;;;;4918221;29;20403;-72
2021/07/20 08:26:04;;;;;;;15.60;14.30;;;20.10;99.50;;;;;;4918723;29;20517;-72
2021/07/20 08:28:44;;;;;;;15.90;14.27;;;20.20;99.20;;;;;;4915436;29;20554;-73
2021/07/20 08:31:11;;;;;;;15.97;14.37;;;20.00;98.60;;;;;;4916112;29;20466;-71
2021/07/20 08:33:38;;;;;;;14.27;11.93;;;20.00;99.30;;;;;;4916410;29;21074;-72
2021/07/20 08:36:07;;;;;;;16.50;12.30;;;20.10;99.30;;;;;;4917733;29;20447;-75
2021/07/20 08:38:36;;;;;;;11.93;10.60;;;20.10;97.80;;;;;;4900686;29;20489;-72
2021/07/20 08:41:33;;;;;;;10.77;9.73;;;20.10;98.20;;;;;;4918556;29;20411;-71
2021/07/20 08:44:24;;;;;;;10.77;9.80;;;20.10;98.50;;;;;;4897738;29;20441;-71
2021/07/20 08:47:46;;;;;;;11.50;10.60;;;20.20;98.00;;;;;;4918785;29;20429;-71
2021/07/20 08:50:30;;;;;;;12.57;10.30;;;20.40;98.20;;;;;;4889269;29;20461;-71
2021/07/20 08:53:21;;;;;;;10.60;9.70;;;20.40;96.10;;;;;;4918783;29;20413;-71
2021/07/20 08:55:50;;;;;;;11.20;10.10;;;20.60;96.90;;;;;;4917496;29;20418;-69
2021/07/20 08:58:37;;;;;;;9.93;8.80;;;20.80;97.90;;;;;;4915385;29;20526;-70
2021/07/20 09:01:11;;;;;;;10.90;9.87;;;21.10;96.10;;;;;;4918700;29;20407;-69
2021/07/20 09:03:54;;;;;;;13.33;12.23;;;21.30;95.70;;;;;;4901085;29;20427;-70
2021/07/20 09:06:32;;;;;;;12.03;11.13;;;21.40;95.30;;;;;;4917927;29;20430;-72
2021/07/20 09:09:18;;;;;;;12.10;10.90;;;21.50;94.60;;;;;;4918018;29;20470;-72
2021/07/20 09:11:50;;;;;;;10.40;9.50;;;21.50;94.30;;;;;;4917947;29;20427;-72
2021/07/20 09:14:45;;;;;;;10.10;9.20;;;21.50;94.10;;;;;;4916838;29;20454;-71
2021/07/20 09:17:14;;;;;;;9.43;8.67;;;21.40;94.40;;;;;;4917771;29;20443;-72
2021/07/20 09:19:50;;;;;;;10.67;9.60;;;21.30;94.50;;;;;;4917630;29;20430;-72
2021/07/20 09:22:18;;;;;;;10.00;9.20;;;21.40;94.50;;;;;;4918168;29;20414;-71
2021/07/20 09:24:49;;;;;;;12.80;10.10;;;21.30;94.70;;;;;;4917585;29;20740;-71
2021/07/20 09:27:39;;;;;;;10.90;9.70;;;21.30;94.60;;;;;;4917882;29;20506;-71
2021/07/20 09:30:26;;;;;;;9.90;9.00;;;21.20;94.50;;;;;;4917251;29;20904;-72
2021/07/20 09:33:26;;;;;;;8.67;7.87;;;21.30;95.50;;;;;;4917402;29;20438;-72
2021/07/20 09:36:04;;;;;;;9.77;8.63;;;21.40;94.40;;;;;;4918066;29;20463;-72
2021/07/20 09:39:02;;;;;;;9.37;8.47;;;21.40;93.40;;;;;;4916895;29;20506;-73
2021/07/20 09:41:39;;;;;;;10.43;9.13;;;21.50;94.30;;;;;;4898385;29;20423;-74
2021/07/20 09:44:38;;;;;;;10.37;9.37;;;21.70;95.40;;;;;;4898647;29;20411;-73
2021/07/20 09:47:37;;;;;;;11.57;10.53;;;21.80;93.80;;;;;;4898480;29;20462;-72
2021/07/20 09:50:08;;;;;;;9.13;8.40;;;21.80;93.00;;;;;;4909444;29;20513;-72
2021/07/20 09:52:42;;;;;;;11.87;10.77;;;21.80;91.40;;;;;;4916526;29;20401;-73
2021/07/20 09:55:42;;;;;;;9.50;8.70;;;21.80;92.00;;;;;;4916340;29;20430;-72
2021/07/20 09:58:42;;;;;;;8.90;8.10;;;21.80;92.10;;;;;;4917673;29;20891;-72
2021/07/20 10:01:31;;;;;;;10.20;9.20;;;21.80;93.00;;;;;;4917687;29;20406;-72
2021/07/20 10:04:20;;;;;;;9.33;8.63;;;22.00;91.50;;;;;;4917380;29;20462;-72
2021/07/20 10:07:01;;;;;;;11.30;10.40;;;22.10;89.20;;;;;;4916540;29;21019;-72
2021/07/20 10:09:35;;;;;;;12.97;11.60;;;22.30;91.40;;;;;;4917406;29;20387;-72
2021/07/20 10:12:06;;;;;;;10.00;9.10;;;22.60;91.20;;;;;;4917543;29;20422;-72
2021/07/20 10:14:52;;;;;;;10.20;9.33;;;22.90;90.60;;;;;;4916763;29;20398;-73
2021/07/20 10:17:49;;;;;;;10.00;9.07;;;23.10;90.60;;;;;;4917283;29;20445;-72
2021/07/20 10:20:26;;;;;;;8.80;8.00;;;23.20;91.20;;;;;;4917335;29;20823;-72
2021/07/20 10:23:04;;;;;;;10.10;9.30;;;23.30;89.70;;;;;;4916544;29;20481;-72
2021/07/20 10:25:48;;;;;;;9.63;8.83;;;23.30;88.90;;;;;;4916592;29;20429;-75
2021/07/20 10:28:30;;;;;;;9.40;8.50;;;23.20;86.90;;;;;;4916966;29;20453;-72
2021/07/20 10:31:06;;;;;;;9.80;8.90;;;23.10;87.80;;;;;;4916315;29;20470;-72
2021/07/20 10:33:47;;;;;;;8.73;7.87;;;23.00;88.10;;;;;;4916321;29;20521;-74
2021/07/20 10:36:22;;;;;;;10.87;9.77;;;22.90;87.10;;;;;;4916974;29;20418;-72
2021/07/20 10:39:07;;;;;;;9.53;8.60;;;22.90;86.40;;;;;;4916273;29;20473;-72
2021/07/20 10:41:36;;;;;;;8.47;7.77;;;23.00;91.00;;;;;;4916396;29;20415;-72
2021/07/20 10:44:09;;;;;;;10.53;9.57;;;23.10;90.00;;;;;;4916712;29;20419;-72
2021/07/20 10:46:36;;;;;;;10.23;9.33;;;23.10;88.30;;;;;;4916235;29;20414;-72
2021/07/20 10:49:31;;;;;;;9.50;8.70;;;23.10;87.30;;;;;;4916601;29;20462;-72
2021/07/20 10:52:26;;;;;;;10.87;9.87;;;23.20;87.40;;;;;;4916698;29;20887;-72
2021/07/20 10:55:09;;;;;;;9.33;7.70;;;23.20;88.50;;;;;;4886234;29;20679;-72
2021/07/20 10:57:46;;;;;;;13.67;10.10;;;23.40;86.90;;;;;;4916088;29;20418;-73
2021/07/20 11:00:16;;;;;;;9.30;8.40;;;23.60;89.80;;;;;;4916674;29;20874;-72
2021/07/20 11:03:20;;;;;;;9.47;8.77;;;23.70;83.10;;;;;;4915876;29;20415;-72
2021/07/20 11:05:50;;;;;;;8.70;7.90;;;23.90;83.50;;;;;;4877737;29;20792;-72
2021/07/20 11:08:17;;;;;;;11.10;10.10;;;24.10;87.30;;;;;;4916717;29;20462;-72
2021/07/20 11:10:50;;;;;;;9.57;8.70;;;24.30;86.70;;;;;;4915850;29;20412;-72
2021/07/20 11:13:30;;;;;;;9.40;8.47;;;24.50;80.00;;;;;;4916073;29;20435;-72
2021/07/20 11:16:01;;;;;;;10.53;9.57;;;24.60;79.80;;;;;;4915139;29;20434;-72
2021/07/20 11:18:33;;;;;;;8.83;8.13;;;24.70;84.40;;;;;;4916550;29;20403;-72
2021/07/20 11:21:02;;;;;;;8.53;7.83;;;24.90;82.20;;;;;;4916381;29;20439;-72
2021/07/20 11:23:38;;;;;;;10.23;9.33;;;25.10;76.40;;;;;;4899571;29;20430;-72
2021/07/20 11:26:04;;;;;;;8.77;8.07;;;25.10;72.30;;;;;;4899385;29;20422;-72
2021/07/20 11:28:31;;;;;;;10.83;10.03;;;25.20;78.10;;;;;;4899297;29;20813;-72
2021/07/20 11:31:01;;;;;;;11.50;10.50;;;25.40;80.30;;;;;;4915363;29;21057;-70
2021/07/20 11:33:32;;;;;;;11.63;10.67;;;25.50;78.20;;;;;;4916302;29;20531;-70
2021/07/20 11:36:02;;;;;;;10.53;9.63;;;25.70;79.80;;;;;;4915661;29;20445;-70
2021/07/20 11:38:29;;;;;;;9.70;8.90;;;25.80;76.20;;;;;;4919926;29;20477;-70
2021/07/20 11:41:19;;;;;;;11.40;10.57;;;26.00;77.70;;;;;;4919399;29;20450;-70
2021/07/20 11:44:01;;;;;;;10.80;9.70;;;26.10;75.30;;;;;;4919002;29;20426;-70
2021/07/20 11:47:06;;;;;;;10.77;9.97;;;26.20;74.50;;;;;;4919692;29;20466;-70
2021/07/20 11:49:41;;;;;;;9.57;8.77;;;26.20;74.20;;;;;;4881807;29;20438;-70
2021/07/20 11:52:14;;;;;;;9.33;8.53;;;26.30;75.30;;;;;;4920219;29;20846;-70
2021/07/20 11:55:04;;;;;;;11.70;10.90;;;26.40;76.60;;;;;;4918952;29;20826;-71
2021/07/20 11:58:09;;;;;;;11.23;10.13;;;26.40;71.50;;;;;;4919814;29;20521;-71
2021/07/20 12:00:54;;;;;;;14.23;13.03;;;26.30;72.70;;;;;;4919808;29;20410;-70
2021/07/20 12:03:34;;;;;;;11.07;10.17;;;26.30;74.30;;;;;;4900931;29;20395;-70
2021/07/20 12:06:09;;;;;;;10.40;9.50;;;26.10;71.60;;;;;;4900020;29;20408;-69
2021/07/20 12:08:44;;;;;;;9.90;9.10;;;25.80;68.50;;;;;;4928843;29;20456;-70
2021/07/20 12:11:23;;;;;;;11.97;10.97;;;25.70;75.80;;;;;;4938639;29;20468;-70
2021/07/20 12:13:49;;;;;;;9.67;8.87;;;25.60;69.10;;;;;;4928902;29;20438;-71
2021/07/20 12:16:17;;;;;;;11.43;10.63;;;25.40;73.00;;;;;;4918582;29;20444;-71
2021/07/20 12:18:50;;;;;;;9.50;8.70;;;25.60;76.70;;;;;;4916699;29;20454;-71
2021/07/20 12:21:19;;;;;;;10.03;9.00;;;25.70;77.40;;;;;;4914090;29;20426;-71
2021/07/20 12:23:46;;;;;;;11.53;9.47;;;25.70;75.40;;;;;;4917626;29;20446;-71
2021/07/20 12:26:12;;;;;;;11.00;10.00;;;25.70;75.50;;;;;;4917374;29;20754;-71
2021/07/20 12:28:49;;;;;;;10.07;9.27;;;25.60;77.10;;;;;;4900491;29;20490;-73
2021/07/20 12:31:15;;;;;;;10.90;10.00;;;25.80;75.80;;;;;;4917636;29;20462;-71
2021/07/20 12:33:43;;;;;;;10.50;9.70;;;25.90;76.40;;;;;;4917223;29;20791;-73
2021/07/20 12:36:10;;;;;;;9.47;8.67;;;26.00;74.40;;;;;;4918324;29;20510;-71
2021/07/20 12:38:36;;;;;;;9.90;9.00;;;26.10;73.50;;;;;;4916776;29;20418;-71
2021/07/20 12:41:13;;;;;;;9.67;8.97;;;26.20;74.50;;;;;;4917016;29;20910;-71
2021/07/20 12:43:44;;;;;;;10.10;9.30;;;26.30;73.30;;;;;;4918064;29;20256;-71
2021/07/20 12:46:16;;;;;;;9.60;8.80;;;26.40;72.70;;;;;;4917963;29;20824;-71
2021/07/20 12:48:46;;;;;;;11.23;9.20;;;26.50;73.50;;;;;;4916626;29;20465;-71
2021/07/20 12:51:13;;;;;;;10.80;9.90;;;26.60;71.30;;;;;;4918443;29;20838;-71
2021/07/20 12:53:40;;;;;;;10.10;9.10;;;26.60;71.20;;;;;;4918233;29;20415;-71
2021/07/20 12:56:10;;;;;;;10.53;9.63;;;26.60;66.10;;;;;;4917811;29;20434;-71
2021/07/20 12:58:36;;;;;;;10.00;9.20;;;26.70;70.40;;;;;;4918285;29;20411;-71